ESSD

Borlange Airport

Sweden
METAR ESSD 140420Z AUTO 24003KT 9999 OVC021/// 05/05 Q1016
Observed Flight Rules
Nov-14 @ 04:20 UTC (29 minutes ago) Marginal Visual Flight Rules
Wind Visibility Clouds
240° at 3 knots 10,000+ meters
  • Overcast at 2,100' AGL
Temperatures Readings
Current 5°C / 41°F
Dewpoint 5°C / 41°F
Humidity 100%
Altimeter 30" Hg
Pressure 1016 hPa
Elevation 161
METAR ESSD 140420Z AUTO 24003KT 9999 OVC021/// 05/05 Q1016
Observed Flight Rules
Nov-14 @ 04:20 UTC
(29 minutes ago)
MVFR
Wind Visibility
240° at 3 knots 10,000+ meters
Clouds
  • Overcast at 2,100' AGL
Temperature Dewpoint
5°C / 41°F 5°C / 41°F
Humidity Altimeter Pressure
100% 30" Hg 1016 hPa